createdAt,value
2022-09-28T00:01:43.703Z,5.24
2022-09-28T00:05:09.070Z,5.20
2022-09-28T00:08:31.969Z,5.19
2022-09-28T00:11:56.730Z,5.17
2022-09-28T00:15:20.507Z,5.13
2022-09-28T00:18:44.080Z,5.11
2022-09-28T00:22:07.863Z,5.07
2022-09-28T00:25:30.622Z,5.07
2022-09-28T00:28:54.193Z,5.03
2022-09-28T00:32:17.458Z,5.03
2022-09-28T00:35:40.623Z,4.99
2022-09-28T00:39:08.816Z,4.98
2022-09-28T00:42:31.767Z,4.95
2022-09-28T00:46:01.043Z,4.94
2022-09-28T00:49:32.744Z,4.93
2022-09-28T00:53:00.107Z,4.88
2022-09-28T00:56:27.896Z,4.86
2022-09-28T00:59:51.364Z,4.83
2022-09-28T01:03:15.127Z,4.83
2022-09-28T01:06:39.985Z,4.82
2022-09-28T01:10:03.723Z,4.82
2022-09-28T01:13:28.988Z,4.80
2022-09-28T01:16:59.459Z,4.77
2022-09-28T01:20:51.704Z,4.75
2022-09-28T01:24:30.858Z,4.72
2022-09-28T01:27:59.745Z,4.71
2022-09-28T01:31:29.053Z,4.67
2022-09-28T01:34:59.995Z,4.67
2022-09-28T01:38:27.360Z,4.63
2022-09-28T01:41:54.111Z,4.62
2022-09-28T01:45:23.996Z,4.59
2022-09-28T01:48:53.995Z,4.56
2022-09-28T01:52:20.911Z,4.54
2022-09-28T01:55:47.493Z,4.52
2022-09-28T01:59:15.604Z,4.52
2022-09-28T02:02:45.230Z,4.51
2022-09-28T02:06:13.642Z,4.50
2022-09-28T02:09:41.825Z,4.48
2022-09-28T02:13:08.878Z,4.48
2022-09-28T02:16:37.095Z,4.44
2022-09-28T02:20:01.806Z,4.43
2022-09-28T02:23:28.819Z,4.39
2022-09-28T02:26:53.825Z,4.38
2022-09-28T02:30:18.432Z,4.33
2022-09-28T02:33:45.686Z,4.34
2022-09-28T02:37:10.385Z,4.33
2022-09-28T02:40:35.754Z,4.32
2022-09-28T02:44:06.547Z,4.30
2022-09-28T02:47:41.591Z,4.25
2022-09-28T02:51:15.712Z,4.29
2022-09-28T02:54:58.128Z,4.20
2022-09-28T02:58:32.980Z,4.23
2022-09-28T03:02:06.537Z,4.22
2022-09-28T03:05:39.164Z,4.20
2022-09-28T03:09:07.018Z,4.13
2022-09-28T03:12:33.886Z,4.13
2022-09-28T03:16:11.938Z,4.13
2022-09-28T03:19:37.520Z,4.15
2022-09-28T03:23:23.304Z,4.17
2022-09-28T03:26:46.282Z,4.21
2022-09-28T03:30:13.644Z,4.22
2022-09-28T03:33:38.133Z,4.23
2022-09-28T03:37:02.026Z,4.26
2022-09-28T03:40:26.070Z,4.28
2022-09-28T03:43:49.579Z,4.29
2022-09-28T03:47:16.534Z,4.31
2022-09-28T03:50:40.209Z,4.34
2022-09-28T03:54:03.682Z,4.40
2022-09-28T03:57:26.645Z,4.42
2022-09-28T04:00:49.764Z,4.39
2022-09-28T04:04:15.034Z,4.45
2022-09-28T04:07:37.977Z,4.47
2022-09-28T04:11:01.034Z,4.45
2022-09-28T04:14:24.032Z,4.49
2022-09-28T04:17:46.968Z,4.48
2022-09-28T04:21:14.526Z,4.51
2022-09-28T04:24:37.381Z,4.52
2022-09-28T04:28:17.441Z,4.53
2022-09-28T04:31:41.808Z,4.53
2022-09-28T04:35:04.692Z,4.56
2022-09-28T04:38:51.334Z,4.56
2022-09-28T04:42:12.840Z,4.57
2022-09-28T04:45:35.828Z,4.59
2022-09-28T04:48:58.759Z,4.56
2022-09-28T04:52:21.513Z,4.57
2022-09-28T04:55:45.597Z,4.59
2022-09-28T04:59:08.452Z,4.59
2022-09-28T05:02:31.565Z,4.54
2022-09-28T05:05:54.887Z,4.40
2022-09-28T05:09:18.087Z,4.65
2022-09-28T05:12:43.163Z,4.66
2022-09-28T05:16:06.167Z,4.70
2022-09-28T05:19:30.513Z,4.77
2022-09-28T05:22:53.166Z,4.79
2022-09-28T05:26:15.817Z,4.80
2022-09-28T05:29:40.011Z,4.83
2022-09-28T05:33:02.458Z,4.88
2022-09-28T05:36:27.297Z,4.89
2022-09-28T05:39:50.219Z,4.96
2022-09-28T05:43:13.057Z,4.97
2022-09-28T05:46:37.368Z,5.00
2022-09-28T05:50:00.061Z,5.01
2022-09-28T05:53:23.495Z,5.04
2022-09-28T05:56:46.040Z,5.06
2022-09-28T06:00:09.927Z,5.07
2022-09-28T06:03:34.322Z,5.05
2022-09-28T06:06:56.977Z,5.04
2022-09-28T06:10:20.544Z,5.09
2022-09-28T06:13:43.403Z,5.06
2022-09-28T06:17:06.313Z,5.11
2022-09-28T06:20:33.521Z,5.12
2022-09-28T06:23:56.379Z,5.13
2022-09-28T06:27:19.237Z,5.08
2022-09-28T06:30:43.575Z,5.14
2022-09-28T06:34:06.182Z,5.16
2022-09-28T06:37:33.341Z,5.13
2022-09-28T06:40:56.024Z,5.24
2022-09-28T06:44:18.998Z,5.28
2022-09-28T06:47:42.421Z,5.30
2022-09-28T06:51:05.076Z,5.28
2022-09-28T06:54:29.261Z,5.39
2022-09-28T06:58:00.724Z,5.45
2022-09-28T07:01:23.609Z,5.54
2022-09-28T07:04:46.847Z,5.51
2022-09-28T07:08:10.217Z,5.58
2022-09-28T07:11:41.263Z,5.67
2022-09-28T07:15:05.264Z,5.70
2022-09-28T07:18:30.298Z,5.76
2022-09-28T07:22:04.107Z,5.80
2022-09-28T07:25:32.052Z,5.88
2022-09-28T07:28:56.962Z,6.02
2022-09-28T07:32:19.727Z,6.11
2022-09-28T07:35:43.490Z,6.15
2022-09-28T07:39:06.865Z,6.24
2022-09-28T07:42:30.760Z,6.32
2022-09-28T07:45:56.341Z,6.47
2022-09-28T07:49:19.723Z,6.51
2022-09-28T07:52:43.512Z,6.61
2022-09-28T07:56:09.233Z,6.72
2022-09-28T07:59:33.013Z,6.76
2022-09-28T08:02:57.207Z,6.88
2022-09-28T08:06:20.264Z,7.00
2022-09-28T08:09:42.820Z,7.17
2022-09-28T08:13:08.685Z,7.23
2022-09-28T08:16:32.928Z,7.33
2022-09-28T08:20:14.634Z,7.39
2022-09-28T08:23:37.593Z,7.50
2022-09-28T08:27:01.100Z,7.53
2022-09-28T08:30:23.838Z,7.64
2022-09-28T08:33:46.986Z,7.77
2022-09-28T08:37:12.929Z,7.86
2022-09-28T08:40:45.343Z,8.01
2022-09-28T08:44:17.036Z,8.20
2022-09-28T08:48:07.466Z,8.40
2022-09-28T08:51:35.855Z,8.56
2022-09-28T08:55:06.593Z,8.71
2022-09-28T08:58:33.550Z,8.70
2022-09-28T09:02:00.969Z,8.59
2022-09-28T09:05:37.495Z,8.53
2022-09-28T09:09:10.133Z,8.53
2022-09-28T09:12:43.328Z,8.66
2022-09-28T09:16:14.682Z,8.92
2022-09-28T09:19:48.552Z,8.91
2022-09-28T09:23:21.347Z,8.95
2022-09-28T09:26:45.326Z,9.08
2022-09-28T09:30:13.959Z,9.26
2022-09-28T09:33:58.117Z,9.42
2022-09-28T09:37:36.120Z,9.47
2022-09-28T09:45:20.885Z,9.77
2022-09-28T09:48:53.121Z,9.88
2022-09-28T09:52:24.068Z,9.91
2022-09-28T09:55:50.884Z,9.95
2022-09-28T09:59:18.867Z,10.02
2022-09-28T10:02:45.944Z,10.01
2022-09-28T10:06:15.124Z,10.03
2022-09-28T10:09:41.542Z,10.02
2022-09-28T10:13:05.537Z,10.16
2022-09-28T10:16:28.778Z,10.19
2022-09-28T10:19:52.988Z,10.30
2022-09-28T10:23:23.723Z,10.37
2022-09-28T10:26:52.315Z,10.43
2022-09-28T10:30:20.094Z,10.49
2022-09-28T10:33:42.950Z,10.62
2022-09-28T10:37:11.546Z,10.74
2022-09-28T10:40:42.145Z,10.80
2022-09-28T10:44:10.967Z,10.86
2022-09-28T10:47:35.987Z,10.92
2022-09-28T10:51:04.681Z,11.01
2022-09-28T10:54:30.915Z,10.95
2022-09-28T10:57:54.491Z,10.97
2022-09-28T11:01:20.875Z,10.86
2022-09-28T11:04:45.839Z,10.84
2022-09-28T11:08:09.617Z,10.75
2022-09-28T11:11:42.719Z,10.65
2022-09-28T11:15:08.339Z,10.65
2022-09-28T11:18:34.273Z,10.73
2022-09-28T11:21:57.439Z,10.89
2022-09-28T11:25:25.916Z,10.92
2022-09-28T11:28:53.491Z,10.94
2022-09-28T11:32:16.758Z,10.95
2022-09-28T11:35:50.570Z,11.05
2022-09-28T11:39:18.315Z,11.00
2022-09-28T11:42:51.957Z,11.09
2022-09-28T11:46:25.974Z,11.12
2022-09-28T11:49:52.823Z,11.21
2022-09-28T11:53:22.334Z,11.17
2022-09-28T11:56:47.964Z,10.99
2022-09-28T12:00:17.269Z,11.08
2022-09-28T12:03:48.427Z,11.12
2022-09-28T12:07:18.340Z,11.19
2022-09-28T12:10:48.884Z,11.26
2022-09-28T12:14:20.655Z,11.26
2022-09-28T12:17:48.077Z,11.21
2022-09-28T12:21:35.342Z,11.20
2022-09-28T12:25:00.144Z,11.26
2022-09-28T12:28:35.186Z,11.32
2022-09-28T12:32:09.922Z,11.40
2022-09-28T12:35:44.766Z,11.43
2022-09-28T12:39:35.544Z,11.42
2022-09-28T12:43:19.733Z,11.46
2022-09-28T12:47:06.103Z,11.42
2022-09-28T12:50:39.876Z,11.33
2022-09-28T12:54:20.322Z,11.42
2022-09-28T12:57:57.106Z,11.44
2022-09-28T13:01:41.821Z,11.36
2022-09-28T13:05:21.175Z,11.23
2022-09-28T13:08:53.910Z,11.19
2022-09-28T13:12:27.173Z,11.17
2022-09-28T13:15:58.957Z,11.21
2022-09-28T13:19:33.175Z,11.30
2022-09-28T13:23:05.686Z,11.41
2022-09-28T13:26:30.390Z,11.52
2022-09-28T13:29:57.648Z,11.62
2022-09-28T13:33:34.127Z,11.56
2022-09-28T13:37:24.685Z,11.49
2022-09-28T13:41:20.182Z,11.19
2022-09-28T13:45:11.182Z,11.23
2022-09-28T13:48:48.983Z,11.26
2022-09-28T13:52:15.672Z,11.32
2022-09-28T13:55:54.359Z,11.33
2022-09-28T13:59:25.308Z,11.18
2022-09-28T14:02:55.055Z,10.95
2022-09-28T14:06:29.153Z,10.82
2022-09-28T14:10:18.224Z,10.70
2022-09-28T14:14:01.041Z,10.64
2022-09-28T14:17:54.824Z,10.57
2022-09-28T14:21:52.500Z,10.50
2022-09-28T14:25:18.841Z,10.47
2022-09-28T14:28:55.012Z,10.43
2022-09-28T14:32:35.092Z,10.45
2022-09-28T14:36:02.841Z,10.39
2022-09-28T14:39:48.136Z,10.39
2022-09-28T14:43:37.403Z,10.42
2022-09-28T14:47:27.808Z,10.46
2022-09-28T14:50:51.993Z,10.32
2022-09-28T14:54:22.945Z,10.45
2022-09-28T14:57:53.380Z,10.37
2022-09-28T15:01:23.922Z,10.26
2022-09-28T15:04:51.362Z,10.10
2022-09-28T15:08:14.341Z,10.08
2022-09-28T15:11:42.111Z,9.99
2022-09-28T15:15:08.967Z,9.89
2022-09-28T15:18:54.041Z,9.85
2022-09-28T15:22:18.128Z,9.81
2022-09-28T15:25:41.393Z,9.75
2022-09-28T15:29:19.208Z,9.68
2022-09-28T15:32:42.062Z,9.60
2022-09-28T15:36:07.565Z,9.50
2022-09-28T15:39:34.579Z,9.43
2022-09-28T15:42:59.401Z,9.26
2022-09-28T15:46:25.413Z,9.18
2022-09-28T15:49:57.551Z,9.13
2022-09-28T15:53:21.017Z,9.05
2022-09-28T15:56:54.119Z,8.93
2022-09-28T16:00:30.186Z,8.82
2022-09-28T16:03:55.397Z,8.78
2022-09-28T16:07:25.421Z,8.70
2022-09-28T16:11:08.347Z,8.61
2022-09-28T16:14:31.415Z,8.54
2022-09-28T16:17:56.524Z,8.47
2022-09-28T16:21:45.698Z,8.44
2022-09-28T16:25:20.025Z,8.38
2022-09-28T16:28:52.409Z,8.38
2022-09-28T16:32:38.924Z,8.37
2022-09-28T16:36:04.845Z,8.27
2022-09-28T16:39:30.368Z,8.33
2022-09-28T16:42:55.173Z,8.28
2022-09-28T16:46:20.427Z,8.32
2022-09-28T16:49:43.651Z,8.31
2022-09-28T16:53:32.415Z,8.32
2022-09-28T16:56:57.216Z,8.31
2022-09-28T17:00:23.353Z,8.31
2022-09-28T17:03:48.058Z,8.30
2022-09-28T17:07:12.448Z,8.27
2022-09-28T17:11:02.152Z,8.31
2022-09-28T17:14:23.665Z,8.31
2022-09-28T17:22:34.062Z,8.34
2022-09-28T17:25:59.580Z,8.32
2022-09-28T17:29:24.177Z,8.36
2022-09-28T17:32:47.678Z,8.35
2022-09-28T17:36:16.758Z,8.33
2022-09-28T17:39:39.405Z,8.38
2022-09-28T17:43:04.213Z,8.37
2022-09-28T17:46:32.435Z,8.37
2022-09-28T17:49:55.764Z,8.37
2022-09-28T17:53:18.927Z,8.36
2022-09-28T17:56:42.709Z,8.40
2022-09-28T18:00:06.387Z,8.40
2022-09-28T18:03:30.879Z,8.42
2022-09-28T18:06:53.431Z,8.43
2022-09-28T18:10:20.217Z,8.41
2022-09-28T18:13:44.064Z,8.27
2022-09-28T18:17:06.713Z,8.36
2022-09-28T18:20:31.620Z,8.40
2022-09-28T18:23:54.375Z,8.37
2022-09-28T18:27:17.850Z,8.35
2022-09-28T18:30:42.923Z,8.39
2022-09-28T18:34:06.428Z,8.39
2022-09-28T18:37:30.617Z,8.36
2022-09-28T18:40:55.059Z,8.36
2022-09-28T18:44:17.663Z,8.36
2022-09-28T18:47:40.823Z,8.39
2022-09-28T18:51:03.650Z,8.37
2022-09-28T18:54:28.381Z,8.39
2022-09-28T18:57:51.755Z,8.39
2022-09-28T19:01:32.095Z,8.36
2022-09-28T19:04:55.183Z,8.34
2022-09-28T19:08:18.282Z,8.35
2022-09-28T19:11:42.848Z,8.34
2022-09-28T19:15:06.270Z,8.32
2022-09-28T19:18:33.068Z,8.33
2022-09-28T19:21:55.746Z,8.33
2022-09-28T19:25:18.577Z,8.29
2022-09-28T19:28:45.120Z,8.29
2022-09-28T19:32:07.772Z,8.29
2022-09-28T19:35:30.735Z,8.13
2022-09-28T19:38:55.281Z,8.32
2022-09-28T19:42:18.397Z,8.26
2022-09-28T19:45:43.277Z,8.24
2022-09-28T19:49:07.398Z,8.02
2022-09-28T19:52:30.448Z,8.24
2022-09-28T19:55:54.838Z,8.26
2022-09-28T19:59:18.217Z,8.22
2022-09-28T20:02:42.776Z,8.26
2022-09-28T20:06:05.877Z,8.23
2022-09-28T20:09:29.138Z,8.17
2022-09-28T20:12:53.742Z,8.20
2022-09-28T20:16:21.113Z,8.18
2022-09-28T20:19:45.492Z,8.17
2022-09-28T20:23:08.452Z,8.15
2022-09-28T20:26:36.429Z,8.10
2022-09-28T20:30:00.207Z,8.12
2022-09-28T20:33:28.896Z,8.12
2022-09-28T20:36:54.423Z,8.02
2022-09-28T20:40:18.640Z,8.07
2022-09-28T20:43:43.007Z,8.04
2022-09-28T20:47:06.066Z,8.02
2022-09-28T20:50:29.236Z,8.06
2022-09-28T20:53:55.163Z,8.01
2022-09-28T20:57:21.669Z,7.95
2022-09-28T21:00:44.362Z,8.01
2022-09-28T21:04:08.446Z,7.97
2022-09-28T21:07:31.609Z,7.98
2022-09-28T21:10:55.801Z,7.99
2022-09-28T21:14:19.236Z,8.00
2022-09-28T21:17:41.923Z,8.00
2022-09-28T21:21:08.068Z,7.88
2022-09-28T21:24:31.734Z,7.95
2022-09-28T21:27:56.847Z,7.91
2022-09-28T21:31:22.628Z,7.87
2022-09-28T21:34:47.303Z,7.87
2022-09-28T21:38:10.237Z,7.82
2022-09-28T21:41:33.194Z,7.85
2022-09-28T21:44:59.470Z,7.84
2022-09-28T21:48:22.496Z,7.79
2022-09-28T21:51:47.500Z,7.56
2022-09-28T21:55:11.482Z,7.80
2022-09-28T21:58:36.321Z,7.84
2022-09-28T22:02:00.744Z,7.84
2022-09-28T22:05:23.949Z,7.82
2022-09-28T22:08:47.012Z,7.78
2022-09-28T22:12:10.068Z,7.78
2022-09-28T22:15:32.869Z,7.80
2022-09-28T22:18:57.706Z,7.79
2022-09-28T22:22:20.348Z,7.58
2022-09-28T22:25:43.247Z,7.72
2022-09-28T22:29:08.456Z,7.65
2022-09-28T22:32:32.537Z,7.76
2022-09-28T22:35:57.445Z,7.75
2022-09-28T22:39:20.099Z,7.63
2022-09-28T22:42:43.341Z,7.69
2022-09-28T22:46:08.071Z,7.67
2022-09-28T22:49:30.512Z,7.66
2022-09-28T22:52:56.751Z,7.64
2022-09-28T22:56:19.715Z,7.62
2022-09-28T22:59:42.464Z,7.63
2022-09-28T23:03:05.386Z,7.62
2022-09-28T23:06:31.255Z,7.62
2022-09-28T23:09:58.514Z,7.63
2022-09-28T23:13:21.577Z,7.60
2022-09-28T23:16:44.129Z,7.58
2022-09-28T23:20:08.529Z,7.57
2022-09-28T23:23:32.502Z,7.54
2022-09-28T23:26:57.510Z,7.57
2022-09-28T23:30:21.727Z,7.45
2022-09-28T23:33:45.743Z,7.53
2022-09-28T23:37:09.060Z,7.50
2022-09-28T23:40:32.887Z,7.40
2022-09-28T23:43:57.729Z,7.48
2022-09-28T23:47:20.900Z,7.43
2022-09-28T23:50:44.883Z,7.46
2022-09-28T23:54:08.339Z,7.40
2022-09-28T23:57:31.836Z,7.46
